Time;durP1;ratioP1;P1;durP2;ratioP2;P2;SDS_P1;SDS_P2;PMS_P1;PMS_P2;Temp;Humidity;BMP_temperature;BMP_pressure;BME280_temperature;BME280_humidity;BME280_pressure;Samples;Min_cycle;Max_cycle;Signal;HPM_P1;HPM_P2
2023/05/10 00:01:23;;;;;;;2.00;1.23;;;15.40;99.90;;;;;;5074442;28;20443;-67
2023/05/10 00:03:51;;;;;;;1.80;0.80;;;15.40;99.90;;;;;;5074756;28;20841;-67
2023/05/10 00:06:19;;;;;;;1.90;0.90;;;15.30;99.90;;;;;;5074614;28;20461;-67
2023/05/10 00:08:46;;;;;;;1.80;0.90;;;15.30;99.90;;;;;;5073889;28;20482;-67
2023/05/10 00:11:14;;;;;;;3.13;0.87;;;15.30;99.90;;;;;;5074511;28;20489;-67
2023/05/10 00:13:42;;;;;;;1.70;0.80;;;15.20;99.90;;;;;;5074348;28;20468;-67
2023/05/10 00:16:12;;;;;;;2.37;1.13;;;15.20;99.90;;;;;;5074554;28;20432;-68
2023/05/10 00:18:42;;;;;;;1.97;0.70;;;15.20;99.90;;;;;;5074016;28;20472;-67
2023/05/10 00:21:14;;;;;;;1.77;0.77;;;15.20;99.90;;;;;;5074547;28;20443;-68
2023/05/10 00:23:42;;;;;;;1.90;0.70;;;15.20;99.90;;;;;;5073737;28;20451;-67
2023/05/10 00:26:13;;;;;;;2.23;0.90;;;15.20;99.90;;;;;;5074503;28;20942;-67
2023/05/10 00:28:43;;;;;;;1.97;0.70;;;15.10;99.90;;;;;;5073905;28;20487;-67
2023/05/10 00:31:10;;;;;;;1.77;0.70;;;15.10;99.90;;;;;;5074412;28;20784;-67
2023/05/10 00:33:38;;;;;;;1.90;0.87;;;15.10;99.90;;;;;;5073618;28;20493;-67
2023/05/10 00:36:07;;;;;;;1.70;0.73;;;15.10;99.90;;;;;;5074236;28;20999;-67
2023/05/10 00:38:37;;;;;;;3.17;0.90;;;15.10;99.90;;;;;;5073933;28;20831;-67
2023/05/10 00:41:05;;;;;;;1.80;0.70;;;15.00;99.90;;;;;;5074111;28;20957;-67
2023/05/10 00:43:33;;;;;;;3.00;0.60;;;15.00;99.90;;;;;;5073537;28;21274;-67
2023/05/10 00:46:02;;;;;;;2.23;0.70;;;15.10;99.90;;;;;;5073962;28;20494;-68
2023/05/10 00:48:30;;;;;;;1.60;0.60;;;15.00;99.90;;;;;;5073130;28;20491;-67
2023/05/10 00:51:02;;;;;;;1.77;0.70;;;15.00;99.90;;;;;;5073572;28;20436;-67
2023/05/10 00:53:31;;;;;;;2.03;1.13;;;15.00;99.90;;;;;;5073328;28;20475;-67
2023/05/10 00:56:00;;;;;;;1.90;0.90;;;14.90;99.90;;;;;;5073819;28;20438;-67
2023/05/10 00:58:30;;;;;;;2.07;1.00;;;14.90;99.90;;;;;;5073353;28;20451;-68
2023/05/10 01:00:59;;;;;;;1.70;0.70;;;15.00;99.90;;;;;;5053720;28;20949;-67
2023/05/10 01:03:28;;;;;;;2.20;1.00;;;14.90;99.90;;;;;;5054614;28;20527;-67
2023/05/10 01:05:56;;;;;;;2.53;0.90;;;14.90;99.90;;;;;;5073431;28;20451;-67
2023/05/10 01:08:26;;;;;;;2.63;1.00;;;14.90;99.90;;;;;;5073121;28;20878;-67
2023/05/10 01:10:56;;;;;;;2.17;0.90;;;14.90;99.90;;;;;;5073788;28;20470;-67
2023/05/10 01:13:32;;;;;;;1.60;0.60;;;14.90;99.90;;;;;;5073327;28;20543;-67
2023/05/10 01:16:01;;;;;;;1.90;0.60;;;14.90;99.90;;;;;;5073390;28;20798;-67
2023/05/10 01:18:31;;;;;;;1.80;0.83;;;14.90;99.90;;;;;;5072819;28;20550;-67
2023/05/10 01:21:10;;;;;;;2.93;0.70;;;14.90;99.90;;;;;;5073815;28;20463;-67
2023/05/10 01:24:06;;;;;;;2.67;0.60;;;14.90;99.90;;;;;;5072903;28;20448;-67
2023/05/10 01:27:10;;;;;;;2.47;1.00;;;14.90;99.90;;;;;;5047845;28;20973;-67
2023/05/10 01:30:04;;;;;;;2.23;1.07;;;14.90;99.90;;;;;;5063163;28;20514;-68
2023/05/10 01:32:40;;;;;;;1.93;0.90;;;14.90;99.90;;;;;;5073257;28;20930;-67
2023/05/10 01:35:14;;;;;;;2.10;1.10;;;14.90;99.90;;;;;;5072856;28;21334;-67
2023/05/10 01:37:51;;;;;;;3.70;1.00;;;14.90;99.90;;;;;;5073406;28;20431;-67
2023/05/10 01:40:25;;;;;;;1.93;0.80;;;14.90;99.90;;;;;;5072776;28;20440;-67
2023/05/10 01:42:59;;;;;;;2.93;1.20;;;14.90;99.90;;;;;;5073045;28;20926;-67
2023/05/10 01:45:31;;;;;;;1.90;0.70;;;14.90;99.90;;;;;;5072991;28;20486;-67
2023/05/10 01:48:07;;;;;;;2.00;0.93;;;14.80;99.90;;;;;;5072811;28;20613;-67
2023/05/10 01:50:38;;;;;;;1.80;0.70;;;14.80;99.90;;;;;;5072423;28;20437;-67
2023/05/10 01:53:08;;;;;;;1.60;0.60;;;14.80;99.90;;;;;;5072806;28;20796;-67
2023/05/10 01:55:43;;;;;;;2.23;0.73;;;14.70;99.90;;;;;;5072861;28;20439;-68
2023/05/10 01:58:14;;;;;;;2.50;0.90;;;14.70;99.90;;;;;;5072198;28;21011;-67
2023/05/10 02:00:43;;;;;;;1.77;1.03;;;14.80;99.90;;;;;;5072787;28;20493;-67
2023/05/10 02:03:14;;;;;;;1.50;0.60;;;14.80;99.90;;;;;;5072643;28;20502;-67
2023/05/10 02:05:44;;;;;;;1.60;0.80;;;14.90;99.90;;;;;;5072629;28;20440;-67
2023/05/10 02:08:14;;;;;;;1.70;0.80;;;14.80;99.90;;;;;;5072381;28;21068;-67
2023/05/10 02:10:47;;;;;;;1.50;0.50;;;14.80;99.90;;;;;;5073238;28;20854;-67
2023/05/10 02:13:16;;;;;;;1.60;0.80;;;14.90;99.90;;;;;;5072311;28;20453;-67
2023/05/10 02:15:49;;;;;;;1.50;0.60;;;14.90;99.90;;;;;;5072655;28;20490;-67
2023/05/10 02:18:19;;;;;;;1.60;0.60;;;14.90;99.90;;;;;;5072014;28;20506;-67
2023/05/10 02:20:48;;;;;;;1.70;0.77;;;14.90;99.90;;;;;;5072976;28;20444;-67
2023/05/10 02:23:22;;;;;;;1.90;0.90;;;14.90;99.90;;;;;;5072273;28;20436;-67
2023/05/10 02:25:50;;;;;;;1.90;0.80;;;14.80;99.90;;;;;;5072912;28;20442;-67
2023/05/10 02:28:19;;;;;;;1.60;0.60;;;14.70;99.90;;;;;;5071980;28;20491;-67
2023/05/10 02:30:48;;;;;;;1.57;0.70;;;14.70;99.90;;;;;;5070821;28;20447;-68
2023/05/10 02:33:16;;;;;;;1.50;0.50;;;14.70;99.90;;;;;;5072423;28;20447;-68
2023/05/10 02:35:46;;;;;;;1.60;0.70;;;14.70;99.90;;;;;;5071741;28;20440;-67
2023/05/10 02:38:15;;;;;;;7.93;6.50;;;14.70;99.90;;;;;;5072416;28;20462;-67
2023/05/10 02:40:44;;;;;;;3.57;1.83;;;14.70;99.90;;;;;;5071840;28;20935;-67
2023/05/10 02:43:15;;;;;;;5.83;0.93;;;14.60;99.90;;;;;;5072376;28;21018;-67
2023/05/10 02:45:48;;;;;;;2.10;0.67;;;14.60;99.90;;;;;;5072116;28;20432;-67
2023/05/10 02:48:15;;;;;;;2.67;1.10;;;14.60;99.90;;;;;;5072106;28;20567;-67
2023/05/10 02:50:46;;;;;;;2.23;0.80;;;14.60;99.90;;;;;;5071948;28;20485;-67
2023/05/10 02:53:20;;;;;;;1.63;0.63;;;14.60;99.90;;;;;;5072864;28;20432;-67
2023/05/10 02:56:00;;;;;;;1.60;0.70;;;14.60;99.90;;;;;;5072192;28;20598;-67
2023/05/10 02:58:35;;;;;;;1.60;0.70;;;14.70;99.90;;;;;;5072191;28;20497;-67
2023/05/10 03:01:07;;;;;;;1.60;0.70;;;14.60;99.90;;;;;;5071432;28;20464;-67
2023/05/10 03:03:35;;;;;;;2.90;0.70;;;14.60;99.90;;;;;;5074510;28;20438;-67
2023/05/10 03:06:04;;;;;;;1.50;0.50;;;14.60;99.90;;;;;;5075934;28;20432;-67
2023/05/10 03:08:32;;;;;;;1.50;0.70;;;14.70;99.90;;;;;;5075682;28;20898;-67
2023/05/10 03:11:25;;;;;;;2.00;0.50;;;14.70;99.90;;;;;;5075328;28;21016;-67
2023/05/10 03:14:09;;;;;;;2.77;0.57;;;14.70;99.90;;;;;;5075901;28;20436;-67
2023/05/10 03:16:47;;;;;;;1.60;0.60;;;14.70;99.90;;;;;;5075341;28;20518;-67
2023/05/10 03:19:28;;;;;;;1.50;0.70;;;14.70;99.90;;;;;;5074527;28;20559;-67
2023/05/10 03:22:03;;;;;;;2.63;0.70;;;14.70;99.90;;;;;;5074786;28;20991;-68
2023/05/10 03:24:33;;;;;;;1.60;0.50;;;14.70;99.90;;;;;;5075875;28;20451;-67
2023/05/10 03:27:06;;;;;;;1.63;0.60;;;14.70;99.90;;;;;;5075368;28;20443;-67
2023/05/10 03:29:35;;;;;;;2.50;0.60;;;14.60;99.90;;;;;;5075216;28;20483;-67
2023/05/10 03:32:05;;;;;;;1.80;0.70;;;14.60;99.90;;;;;;5075097;28;20440;-67
2023/05/10 03:34:33;;;;;;;1.63;0.70;;;14.60;99.90;;;;;;5075175;28;20428;-67
2023/05/10 03:37:06;;;;;;;2.00;0.70;;;14.60;99.90;;;;;;5074780;28;20942;-67
2023/05/10 03:39:36;;;;;;;1.50;0.60;;;14.60;99.90;;;;;;5075253;28;20446;-67
2023/05/10 03:42:04;;;;;;;1.87;0.80;;;14.60;99.90;;;;;;5074874;28;20450;-67
2023/05/10 03:44:33;;;;;;;5.50;0.70;;;14.60;99.90;;;;;;5075367;28;20436;-67
2023/05/10 03:47:09;;;;;;;2.87;0.70;;;14.60;99.90;;;;;;5074824;28;20432;-67
2023/05/10 03:49:37;;;;;;;1.60;0.60;;;14.50;99.90;;;;;;5074820;28;20464;-67
2023/05/10 03:52:06;;;;;;;3.00;0.80;;;14.50;99.90;;;;;;5074779;28;20866;-67
2023/05/10 03:54:37;;;;;;;1.80;0.90;;;14.50;99.90;;;;;;5075072;28;20447;-67
2023/05/10 03:57:07;;;;;;;1.80;1.23;;;14.50;99.90;;;;;;5074652;28;20444;-67
2023/05/10 03:59:34;;;;;;;3.20;1.10;;;14.50;99.90;;;;;;5075259;28;20523;-67
2023/05/10 04:02:07;;;;;;;1.70;0.90;;;14.50;99.90;;;;;;5075046;28;20439;-67
2023/05/10 04:04:35;;;;;;;1.70;1.00;;;14.40;99.90;;;;;;5054802;28;20776;-67
2023/05/10 04:07:02;;;;;;;1.60;0.80;;;14.40;99.90;;;;;;5054781;28;20437;-67
2023/05/10 04:09:32;;;;;;;1.70;0.70;;;14.40;99.90;;;;;;5073491;28;20549;-67
2023/05/10 04:12:02;;;;;;;1.70;0.80;;;14.40;99.90;;;;;;5074576;28;20452;-67
2023/05/10 04:14:40;;;;;;;2.10;0.90;;;14.40;99.90;;;;;;5073162;28;20443;-68
2023/05/10 04:17:10;;;;;;;1.50;0.60;;;14.40;99.90;;;;;;5074781;28;20938;-67
2023/05/10 04:19:38;;;;;;;1.90;0.70;;;14.30;99.90;;;;;;5073319;28;20500;-67
2023/05/10 04:22:05;;;;;;;1.50;0.60;;;14.40;99.90;;;;;;5074649;28;20787;-67
2023/05/10 04:24:35;;;;;;;1.83;0.53;;;14.40;99.90;;;;;;5073642;28;20448;-67
2023/05/10 04:27:07;;;;;;;1.80;0.80;;;14.40;99.90;;;;;;5074229;28;20938;-67
2023/05/10 04:29:36;;;;;;;1.70;0.60;;;14.40;99.90;;;;;;5073977;28;20982;-67
2023/05/10 04:32:09;;;;;;;2.03;0.60;;;14.40;99.90;;;;;;5074448;28;20436;-67
2023/05/10 04:34:37;;;;;;;3.70;0.70;;;14.40;99.90;;;;;;5073607;28;20933;-67
2023/05/10 04:37:05;;;;;;;1.50;0.50;;;14.40;99.90;;;;;;5073144;28;20520;-68
2023/05/10 04:39:34;;;;;;;1.43;0.40;;;14.40;99.90;;;;;;5074159;28;20522;-67
2023/05/10 04:42:05;;;;;;;1.50;0.53;;;14.40;99.90;;;;;;5072849;28;20432;-67
2023/05/10 04:44:33;;;;;;;3.20;0.70;;;14.40;99.90;;;;;;5072786;28;20937;-67
2023/05/10 04:47:02;;;;;;;1.60;0.70;;;14.40;99.90;;;;;;5073687;28;20852;-67
2023/05/10 04:49:29;;;;;;;4.07;0.70;;;14.50;99.90;;;;;;5073767;28;20498;-67
2023/05/10 04:51:58;;;;;;;1.60;0.63;;;14.40;99.90;;;;;;5055149;28;20923;-67
2023/05/10 04:54:25;;;;;;;1.83;0.70;;;14.50;99.90;;;;;;5073060;28;20448;-67
2023/05/10 04:56:54;;;;;;;2.70;0.80;;;14.50;99.90;;;;;;5073601;28;20498;-68
2023/05/10 04:59:23;;;;;;;1.53;0.60;;;14.50;99.90;;;;;;5073209;28;20926;-67
2023/05/10 05:01:52;;;;;;;1.70;0.70;;;14.50;99.90;;;;;;5073105;28;20443;-67
2023/05/10 05:04:24;;;;;;;1.60;0.60;;;14.50;99.90;;;;;;5073224;28;20443;-67
2023/05/10 05:06:52;;;;;;;2.80;0.70;;;14.50;99.90;;;;;;5073138;28;20447;-67
2023/05/10 05:09:20;;;;;;;1.50;0.60;;;14.50;99.90;;;;;;5073103;28;20514;-69
2023/05/10 05:11:48;;;;;;;1.60;0.70;;;14.60;99.90;;;;;;5053373;28;21001;-67
2023/05/10 05:14:18;;;;;;;2.40;1.00;;;14.50;99.90;;;;;;5068407;28;20443;-67
2023/05/10 05:16:45;;;;;;;1.70;0.80;;;14.60;99.90;;;;;;5072005;28;20444;-68
2023/05/10 05:19:13;;;;;;;1.60;0.80;;;14.60;99.90;;;;;;5072293;28;20466;-68
2023/05/10 05:21:44;;;;;;;1.70;0.70;;;14.60;99.90;;;;;;5073149;28;20514;-68
2023/05/10 05:24:13;;;;;;;3.90;1.07;;;14.70;99.90;;;;;;5067256;28;20435;-68
2023/05/10 05:26:41;;;;;;;3.43;2.30;;;14.70;99.90;;;;;;5072215;28;20915;-68
2023/05/10 05:29:08;;;;;;;5.60;4.90;;;14.80;99.90;;;;;;5073250;28;20555;-68
2023/05/10 05:31:37;;;;;;;2.50;1.17;;;14.80;99.90;;;;;;5073064;28;20442;-69
2023/05/10 05:34:05;;;;;;;1.80;0.70;;;14.80;99.90;;;;;;5069417;28;20444;-68
2023/05/10 05:36:33;;;;;;;2.23;0.97;;;14.90;99.90;;;;;;5071833;28;20486;-68
2023/05/10 05:39:01;;;;;;;1.60;0.60;;;14.90;99.90;;;;;;5071924;28;20439;-69
2023/05/10 05:41:36;;;;;;;1.70;0.70;;;14.90;99.90;;;;;;5071678;28;20536;-69
2023/05/10 05:44:06;;;;;;;1.90;0.90;;;14.90;99.90;;;;;;5072171;28;20493;-69
2023/05/10 05:46:38;;;;;;;2.83;0.80;;;14.90;99.90;;;;;;5071832;28;20439;-69
2023/05/10 05:49:08;;;;;;;2.07;0.90;;;14.90;99.90;;;;;;5089496;28;20483;-69
2023/05/10 05:51:35;;;;;;;2.50;0.77;;;14.90;99.90;;;;;;5086998;28;20433;-69
2023/05/10 05:54:04;;;;;;;2.57;0.60;;;14.90;99.90;;;;;;5072023;28;20963;-69
2023/05/10 05:56:31;;;;;;;1.80;0.80;;;14.90;99.90;;;;;;5071949;28;20435;-66
2023/05/10 05:59:13;;;;;;;1.60;0.67;;;14.90;99.90;;;;;;5071701;28;20519;-66
2023/05/10 06:01:42;;;;;;;1.70;0.63;;;14.80;99.90;;;;;;5071852;28;20436;-67
2023/05/10 06:04:10;;;;;;;3.20;1.40;;;14.80;99.90;;;;;;5067510;28;20432;-67
2023/05/10 06:06:40;;;;;;;1.90;0.93;;;14.80;99.90;;;;;;5071396;28;20457;-67
2023/05/10 06:09:08;;;;;;;2.97;1.00;;;14.70;99.90;;;;;;5072346;28;20518;-66
2023/05/10 06:11:36;;;;;;;3.70;1.00;;;14.70;99.70;;;;;;5067482;28;20475;-67
2023/05/10 06:14:04;;;;;;;2.17;0.73;;;14.70;99.50;;;;;;5089513;28;20442;-67
2023/05/10 06:16:31;;;;;;;1.97;1.10;;;14.70;99.30;;;;;;5089209;28;20945;-67
2023/05/10 06:19:00;;;;;;;1.70;0.70;;;14.60;99.80;;;;;;5074990;28;20473;-67
2023/05/10 06:21:27;;;;;;;1.73;0.80;;;14.60;99.70;;;;;;5076647;28;20439;-67
2023/05/10 06:23:53;;;;;;;2.00;0.87;;;14.70;99.50;;;;;;5074912;28;20479;-67
2023/05/10 06:26:21;;;;;;;2.90;0.87;;;14.70;99.70;;;;;;5081083;28;20855;-67
2023/05/10 06:28:53;;;;;;;1.63;0.70;;;14.80;99.80;;;;;;5071244;28;20436;-68
2023/05/10 06:31:25;;;;;;;2.00;0.70;;;14.90;99.90;;;;;;5089305;28;20469;-67
2023/05/10 06:33:52;;;;;;;2.23;0.70;;;15.00;99.90;;;;;;5072769;28;20443;-67
2023/05/10 06:36:21;;;;;;;1.70;0.73;;;15.20;99.90;;;;;;5072415;28;20932;-67
2023/05/10 06:38:48;;;;;;;5.93;0.97;;;15.30;99.90;;;;;;5073380;28;20853;-67
2023/05/10 06:41:15;;;;;;;2.80;0.93;;;15.50;99.90;;;;;;5073866;28;20487;-67
2023/05/10 06:43:43;;;;;;;1.80;0.93;;;15.60;99.80;;;;;;5075493;28;20436;-67
2023/05/10 06:46:10;;;;;;;2.10;0.80;;;15.70;99.60;;;;;;5082699;28;20436;-67
2023/05/10 06:48:37;;;;;;;3.40;1.00;;;15.80;99.10;;;;;;5073893;28;20902;-68
2023/05/10 06:51:05;;;;;;;2.17;1.20;;;16.00;99.20;;;;;;5074298;28;20476;-67
2023/05/10 06:53:33;;;;;;;2.80;1.17;;;16.10;98.40;;;;;;5075763;28;20440;-68
2023/05/10 06:56:00;;;;;;;2.03;0.93;;;16.20;97.70;;;;;;5074898;28;20432;-68
2023/05/10 06:58:27;;;;;;;2.40;0.90;;;16.20;97.70;;;;;;5075454;28;20447;-67
2023/05/10 07:01:02;;;;;;;1.70;0.80;;;16.30;97.60;;;;;;5075235;28;20447;-68
2023/05/10 07:03:29;;;;;;;6.90;1.23;;;16.30;96.60;;;;;;5075757;28;20451;-68
2023/05/10 07:06:02;;;;;;;3.53;0.90;;;16.30;97.10;;;;;;5075765;28;20436;-67
2023/05/10 07:08:29;;;;;;;1.83;0.77;;;16.40;97.00;;;;;;5075859;28;20446;-68
2023/05/10 07:11:03;;;;;;;4.90;1.10;;;16.50;96.70;;;;;;5075626;28;20929;-68
2023/05/10 07:13:31;;;;;;;2.10;0.80;;;16.60;97.00;;;;;;5072484;28;20440;-67
2023/05/10 07:15:58;;;;;;;1.80;0.80;;;16.70;97.00;;;;;;5075487;28;20481;-68
2023/05/10 07:18:25;;;;;;;1.60;0.60;;;16.80;96.20;;;;;;5074573;28;20662;-68
2023/05/10 07:20:52;;;;;;;4.93;0.90;;;16.90;95.60;;;;;;5071285;28;20432;-67
2023/05/10 07:23:19;;;;;;;7.33;1.20;;;17.00;95.80;;;;;;5075174;28;20468;-67
2023/05/10 07:25:46;;;;;;;2.27;0.80;;;17.00;94.70;;;;;;5091598;28;20523;-67
2023/05/10 07:28:16;;;;;;;1.77;0.73;;;17.10;95.30;;;;;;5093149;28;20533;-67
2023/05/10 07:30:43;;;;;;;7.53;0.83;;;17.10;95.10;;;;;;5071308;28;20518;-68
2023/05/10 07:33:11;;;;;;;1.70;0.60;;;17.10;94.50;;;;;;5075013;28;20497;-67
2023/05/10 07:35:38;;;;;;;2.50;0.83;;;17.20;93.30;;;;;;5074993;28;20501;-67
2023/05/10 07:38:05;;;;;;;2.97;0.90;;;17.30;92.90;;;;;;5074678;28;20436;-68
2023/05/10 07:40:33;;;;;;;3.83;0.80;;;17.40;92.90;;;;;;5070707;28;20476;-68
2023/05/10 07:43:04;;;;;;;1.67;0.70;;;17.50;93.50;;;;;;5075143;28;20508;-68
2023/05/10 07:45:32;;;;;;;2.10;0.70;;;17.70;93.10;;;;;;5075241;28;20531;-67
2023/05/10 07:48:00;;;;;;;1.70;0.80;;;17.80;91.60;;;;;;5074071;28;20486;-68
2023/05/10 07:50:27;;;;;;;1.70;0.80;;;17.80;91.90;;;;;;5074876;28;20885;-67
2023/05/10 07:52:54;;;;;;;2.53;0.70;;;17.70;90.20;;;;;;5074796;28;20822;-67
2023/05/10 07:55:22;;;;;;;2.00;0.80;;;17.60;91.00;;;;;;5074745;28;20443;-67
2023/05/10 07:57:49;;;;;;;6.50;2.20;;;17.50;91.10;;;;;;5092468;28;20439;-67
2023/05/10 08:00:19;;;;;;;4.30;1.17;;;17.40;90.90;;;;;;5092845;28;20496;-67
2023/05/10 08:02:47;;;;;;;2.10;0.70;;;17.30;91.80;;;;;;5092719;28;20862;-67
2023/05/10 08:05:15;;;;;;;3.33;0.80;;;17.30;92.70;;;;;;5092171;28;20514;-67
2023/05/10 08:07:42;;;;;;;2.20;0.90;;;17.20;92.00;;;;;;5092740;28;20434;-67
2023/05/10 08:10:12;;;;;;;2.10;1.00;;;17.10;92.30;;;;;;5092549;28;21008;-67
2023/05/10 08:12:40;;;;;;;1.83;0.80;;;16.90;91.90;;;;;;5081566;28;20435;-67
2023/05/10 08:15:09;;;;;;;1.90;0.67;;;16.80;91.90;;;;;;5071431;28;20471;-67
2023/05/10 08:17:36;;;;;;;2.37;0.87;;;16.60;92.50;;;;;;5077288;28;20482;-67
2023/05/10 08:20:05;;;;;;;1.83;0.70;;;16.50;92.60;;;;;;5077380;28;20562;-67
2023/05/10 08:22:32;;;;;;;1.60;0.60;;;16.40;92.60;;;;;;5073357;28;20522;-68
2023/05/10 08:24:59;;;;;;;2.00;0.80;;;16.30;93.00;;;;;;5073842;28;20480;-67
2023/05/10 08:27:26;;;;;;;1.90;0.90;;;16.20;93.30;;;;;;5077240;28;20498;-68
2023/05/10 08:29:54;;;;;;;2.00;0.80;;;16.10;93.50;;;;;;5072853;28;20480;-68
2023/05/10 08:32:21;;;;;;;2.40;0.63;;;15.90;93.50;;;;;;5072657;28;20440;-67
2023/05/10 08:34:48;;;;;;;2.67;0.83;;;15.90;94.40;;;;;;5080326;28;20443;-67
2023/05/10 08:37:21;;;;;;;2.33;0.70;;;15.90;94.80;;;;;;5076491;28;21012;-67
2023/05/10 08:39:48;;;;;;;1.60;0.60;;;16.00;95.60;;;;;;5077205;28;20531;-68
2023/05/10 08:42:20;;;;;;;2.07;0.70;;;16.10;95.20;;;;;;5072182;28;20897;-67
2023/05/10 08:44:49;;;;;;;1.50;0.57;;;16.30;95.70;;;;;;5077074;28;20429;-67
2023/05/10 08:47:19;;;;;;;1.53;0.60;;;16.50;94.30;;;;;;5073322;28;20447;-67
2023/05/10 08:49:51;;;;;;;1.50;0.60;;;16.80;93.10;;;;;;5072574;28;20480;-67
2023/05/10 08:52:24;;;;;;;1.80;0.70;;;17.20;93.20;;;;;;5072844;28;20440;-67
2023/05/10 08:54:53;;;;;;;1.80;0.73;;;17.50;91.70;;;;;;5081284;28;20468;-68
2023/05/10 08:57:21;;;;;;;1.90;0.80;;;17.80;91.50;;;;;;5073026;28;20518;-68
2023/05/10 08:59:48;;;;;;;1.90;0.70;;;18.00;91.80;;;;;;5077814;28;20922;-68
2023/05/10 09:02:15;;;;;;;2.03;0.80;;;18.20;91.20;;;;;;5074058;28;20498;-68
2023/05/10 09:04:42;;;;;;;1.80;0.90;;;18.30;90.40;;;;;;5075577;28;20856;-68
2023/05/10 09:07:11;;;;;;;2.20;0.90;;;18.50;90.90;;;;;;5076726;28;20475;-68
2023/05/10 09:09:38;;;;;;;1.80;0.80;;;18.80;89.80;;;;;;5076413;28;20468;-68
2023/05/10 09:12:10;;;;;;;2.40;0.90;;;19.10;88.60;;;;;;5073995;28;20502;-68
2023/05/10 09:14:38;;;;;;;2.37;0.80;;;19.30;82.60;;;;;;5072970;28;20828;-68
2023/05/10 09:17:05;;;;;;;1.87;0.80;;;19.30;82.70;;;;;;5069820;28;20819;-67
2023/05/10 09:19:35;;;;;;;3.30;0.80;;;19.50;83.70;;;;;;5073971;28;20507;-68
2023/05/10 09:22:02;;;;;;;1.93;0.80;;;19.70;85.40;;;;;;5079236;28;20518;-68
2023/05/10 09:24:31;;;;;;;2.50;1.10;;;19.80;82.40;;;;;;5071791;28;20440;-68
2023/05/10 09:26:58;;;;;;;2.27;0.90;;;19.80;81.70;;;;;;5072073;28;20460;-68
2023/05/10 09:29:26;;;;;;;2.00;0.90;;;19.70;80.30;;;;;;5075986;28;20455;-67
2023/05/10 09:31:55;;;;;;;1.83;0.87;;;19.50;80.80;;;;;;5076002;28;20574;-67
2023/05/10 09:34:30;;;;;;;2.50;0.90;;;19.40;82.60;;;;;;5072155;28;20502;-67
2023/05/10 09:37:00;;;;;;;2.63;1.20;;;19.30;84.30;;;;;;5072384;28;20462;-67
2023/05/10 09:39:32;;;;;;;2.00;1.10;;;19.10;81.90;;;;;;5070986;28;20995;-68
2023/05/10 09:42:00;;;;;;;1.77;0.83;;;18.80;81.50;;;;;;5078546;28;20917;-68
2023/05/10 09:44:29;;;;;;;3.47;1.00;;;18.60;83.70;;;;;;5081018;28;20446;-68
2023/05/10 09:46:56;;;;;;;2.93;0.83;;;18.40;87.20;;;;;;5081665;28;20522;-67
2023/05/10 09:49:23;;;;;;;2.20;0.80;;;18.30;89.80;;;;;;5071748;28;20444;-68
2023/05/10 09:52:01;;;;;;;3.10;0.90;;;18.10;90.00;;;;;;5075444;28;20877;-67
2023/05/10 09:54:28;;;;;;;2.10;0.93;;;18.10;87.30;;;;;;5072789;28;20926;-67
2023/05/10 09:56:55;;;;;;;2.03;1.17;;;17.90;86.40;;;;;;5074114;28;20447;-67
2023/05/10 09:59:25;;;;;;;1.93;1.10;;;17.60;87.20;;;;;;5075415;28;20534;-67
2023/05/10 10:01:56;;;;;;;2.27;0.97;;;17.40;88.00;;;;;;5074726;28;20447;-68
2023/05/10 10:04:23;;;;;;;2.70;1.07;;;17.30;90.00;;;;;;5075513;28;20441;-67
2023/05/10 10:07:00;;;;;;;3.23;0.90;;;17.20;90.50;;;;;;5075330;28;20436;-67
2023/05/10 10:09:28;;;;;;;1.70;0.80;;;17.10;90.90;;;;;;5069533;28;20436;-67
2023/05/10 10:11:55;;;;;;;3.40;1.00;;;16.90;90.40;;;;;;5073705;28;20486;-67
2023/05/10 10:14:23;;;;;;;4.40;1.30;;;16.90;90.80;;;;;;5078814;28;20526;-67
2023/05/10 10:16:51;;;;;;;1.93;1.10;;;16.80;90.80;;;;;;5071390;28;20451;-67
2023/05/10 10:19:20;;;;;;;2.47;1.00;;;16.80;91.40;;;;;;5074951;28;20795;-67
2023/05/10 10:21:47;;;;;;;3.13;1.00;;;16.90;91.60;;;;;;5071296;28;20458;-68
2023/05/10 10:24:14;;;;;;;2.00;0.80;;;16.90;91.40;;;;;;5075025;28;20435;-68
2023/05/10 10:26:43;;;;;;;3.37;1.10;;;16.90;91.70;;;;;;5076129;28;20440;-68
2023/05/10 10:29:20;;;;;;;1.77;0.90;;;17.00;91.60;;;;;;5071395;28;20556;-67
2023/05/10 10:31:53;;;;;;;1.70;0.67;;;17.00;91.80;;;;;;5076824;28;21055;-67
2023/05/10 10:34:32;;;;;;;1.70;0.70;;;16.90;90.60;;;;;;5071404;28;20446;-67
2023/05/10 10:37:13;;;;;;;1.50;0.60;;;16.80;90.00;;;;;;5078082;28;20526;-68
2023/05/10 10:39:45;;;;;;;3.20;1.00;;;16.80;89.20;;;;;;5071624;28;20480;-67
2023/05/10 10:42:12;;;;;;;1.90;0.80;;;16.60;89.80;;;;;;5074956;28;20467;-68
2023/05/10 10:44:40;;;;;;;2.70;0.87;;;16.50;90.10;;;;;;5078815;28;20553;-67
2023/05/10 10:47:24;;;;;;;2.97;1.10;;;16.40;90.80;;;;;;5071143;28;20505;-67
2023/05/10 10:50:03;;;;;;;2.50;0.83;;;16.30;90.80;;;;;;5071095;28;20895;-67
2023/05/10 10:52:38;;;;;;;2.37;1.10;;;16.10;91.60;;;;;;5069644;28;20479;-67
2023/05/10 10:55:07;;;;;;;3.20;0.90;;;16.00;91.80;;;;;;5068622;28;20817;-68
2023/05/10 10:57:44;;;;;;;2.93;1.00;;;16.00;92.20;;;;;;5074739;28;20538;-67
2023/05/10 11:00:28;;;;;;;2.17;1.07;;;16.00;91.80;;;;;;5076863;28;20476;-68
2023/05/10 11:02:58;;;;;;;1.90;0.80;;;15.90;92.50;;;;;;5070798;28;20487;-68
2023/05/10 11:05:40;;;;;;;4.87;1.20;;;16.00;93.10;;;;;;5077532;28;20439;-68
2023/05/10 11:08:15;;;;;;;3.23;1.67;;;16.00;93.40;;;;;;5074196;28;20435;-68
2023/05/10 11:10:54;;;;;;;2.07;1.10;;;16.00;93.40;;;;;;5070723;28;20545;-68
2023/05/10 11:13:31;;;;;;;2.30;1.00;;;16.00;93.80;;;;;;5078269;28;20446;-68
2023/05/10 11:15:59;;;;;;;2.43;1.10;;;16.10;93.50;;;;;;5068361;28;20531;-68
2023/05/10 11:18:30;;;;;;;3.43;2.63;;;16.10;93.60;;;;;;5070284;28;20985;-68
2023/05/10 11:21:02;;;;;;;3.30;2.50;;;16.00;92.60;;;;;;5074464;28;20840;-68
2023/05/10 11:23:33;;;;;;;2.50;2.00;;;16.00;92.80;;;;;;5072526;28;20452;-67
2023/05/10 11:26:01;;;;;;;2.57;1.43;;;15.80;93.80;;;;;;5073645;28;20502;-68
2023/05/10 11:28:29;;;;;;;2.80;1.23;;;15.70;94.50;;;;;;5079572;28;20440;-68
2023/05/10 11:31:01;;;;;;;2.43;1.57;;;15.80;94.90;;;;;;5075245;28;20563;-67
2023/05/10 11:33:28;;;;;;;4.50;1.27;;;15.70;94.50;;;;;;5081260;28;20442;-67
2023/05/10 11:35:55;;;;;;;3.70;1.03;;;15.70;94.70;;;;;;5077211;28;20443;-68
2023/05/10 11:38:23;;;;;;;3.30;1.63;;;15.80;94.90;;;;;;5078410;28;20520;-67
2023/05/10 11:40:54;;;;;;;2.00;0.90;;;15.90;95.40;;;;;;5081057;28;20929;-67
2023/05/10 11:43:27;;;;;;;3.10;0.80;;;15.90;95.60;;;;;;5075049;28;20448;-67
2023/05/10 11:45:57;;;;;;;2.73;1.30;;;16.00;94.70;;;;;;5071894;28;20493;-67
2023/05/10 11:48:24;;;;;;;2.13;1.20;;;16.00;93.80;;;;;;5071416;28;20448;-68
2023/05/10 11:50:52;;;;;;;2.10;1.10;;;16.00;92.70;;;;;;5074249;28;20515;-67
2023/05/10 11:53:21;;;;;;;1.97;0.90;;;16.00;92.50;;;;;;5074632;28;20972;-67
2023/05/10 11:55:52;;;;;;;6.03;1.20;;;16.10;92.40;;;;;;5074542;28;20534;-67
2023/05/10 11:58:21;;;;;;;2.67;1.00;;;16.10;92.60;;;;;;5074325;28;20962;-68
2023/05/10 12:00:48;;;;;;;3.90;1.70;;;16.10;92.90;;;;;;5076362;28;20782;-67
2023/05/10 12:03:15;;;;;;;5.10;3.00;;;16.10;92.90;;;;;;5074332;28;20471;-68
2023/05/10 12:05:44;;;;;;;2.67;1.40;;;16.20;93.30;;;;;;5073909;28;20509;-67
2023/05/10 12:08:15;;;;;;;2.37;0.90;;;16.20;92.60;;;;;;5070676;28;20467;-67
2023/05/10 12:10:42;;;;;;;2.40;1.27;;;16.20;92.40;;;;;;5070257;28;20480;-67
2023/05/10 12:13:21;;;;;;;2.23;1.00;;;16.20;92.20;;;;;;5074553;28;20526;-67
2023/05/10 12:15:50;;;;;;;3.50;0.97;;;16.10;92.40;;;;;;5073309;28;20489;-67
2023/05/10 12:18:25;;;;;;;2.37;0.90;;;16.20;92.20;;;;;;5074053;28;20890;-68
2023/05/10 12:20:53;;;;;;;2.67;0.83;;;16.10;91.10;;;;;;5080548;28;20440;-68
2023/05/10 12:23:27;;;;;;;2.37;0.90;;;16.10;90.70;;;;;;5074183;28;20436;-67
2023/05/10 12:26:03;;;;;;;2.93;1.20;;;16.00;91.20;;;;;;5075781;28;20475;-67
2023/05/10 12:28:36;;;;;;;3.17;0.80;;;16.00;91.10;;;;;;5074203;28;20451;-67
2023/05/10 12:31:04;;;;;;;2.60;1.30;;;15.90;91.50;;;;;;5072538;28;20475;-67
2023/05/10 12:33:39;;;;;;;1.90;0.80;;;15.90;91.50;;;;;;5073917;28;20869;-67
2023/05/10 12:36:12;;;;;;;1.90;0.90;;;15.90;91.50;;;;;;5073704;28;20440;-67
2023/05/10 12:38:42;;;;;;;1.90;0.90;;;16.00;91.00;;;;;;5077555;28;20534;-67
2023/05/10 12:41:12;;;;;;;3.87;1.43;;;16.00;91.50;;;;;;5073554;28;21029;-67
2023/05/10 12:43:41;;;;;;;3.00;1.23;;;16.00;91.70;;;;;;5077859;28;20918;-67
2023/05/10 12:46:15;;;;;;;3.03;1.10;;;16.00;91.70;;;;;;5079670;28;20530;-67
2023/05/10 12:48:43;;;;;;;4.30;1.50;;;15.90;92.20;;;;;;5073179;28;20445;-67
2023/05/10 12:51:15;;;;;;;2.63;1.40;;;16.00;93.10;;;;;;5073344;28;20508;-67
2023/05/10 12:53:45;;;;;;;2.00;0.80;;;16.10;93.60;;;;;;5073459;28;20930;-67
2023/05/10 12:56:14;;;;;;;1.80;0.90;;;16.20;93.20;;;;;;5073199;28;20522;-68
2023/05/10 12:58:47;;;;;;;2.00;1.00;;;16.40;93.50;;;;;;5073204;28;20853;-67
2023/05/10 13:01:14;;;;;;;2.20;1.17;;;16.50;93.30;;;;;;5077177;28;20444;-68
2023/05/10 13:03:43;;;;;;;1.77;0.93;;;16.50;93.30;;;;;;5072791;28;20866;-68